Relevés horaires Antwerpen / Deurne (Belgique)


Relevés horaires à Antwerpen / Deurne - Lundi 04 Mars 2024
Heure UTC1 Température [°C] Vent [km/h] Hum. [%] Pres.4 [hPa] Visi. [Km] Nébu. [octa] Préc.5 [mm] Cond.
2m. Res. Ros. Dir.2 Vit. Moy. Raf.3
23:00 3.0 3.0 1.2 NNO 0.0 1.9 1.9 88 1012.3(0.0/3h) 21 -- -- --
22:00 3.1 3.1 1.1 E 1.9 1.9 1.9 87 1012.2(0.1/3h) 30 2/8 -- --
21:00 3.9 3.9 1.2 E 1.9 3.7 3.7 83 1012.4(0.3/3h) 30 5/8 -- --
20:00 4.8 4.8 0.9 ESE 1.9 1.9 3.7 76 1012.3(0.4/3h) 30 5/8 -- --
19:00 7.5 7.5 2.0 ENE 1.9 3.7 3.7 68 1012.2(0.5/3h) 30 5/8 -- --
18:00 7.7 7.7 1.4 ESE 1.9 3.7 7.4 64 1012.1(0.3/3h) 30 5/8 0/12h
--
17:00 9.8 9.8 1.1 SE 1.9 3.7 3.7 55 1011.8(-0.3/3h) 25 4/8 -- --
16:00 11.0 11.0 0.7 NNO 0.0 3.7 5.6 49 1011.7(-0.9/3h) 25 2/8 -- --
15:00 11.8 11.8 0.1 NE 1.9 3.7 7.4 44 1011.8(-1.0/3h) 25 1/8 -- --
14:00 11.4 11.4 -0.2 NO 1.9 3.7 7.4 45 1012.1(-1.0/3h) 25 1/8 -- --
13:00 10.5 10.5 0.8 NO 3.7 3.7 5.6 51 1012.6(-0.7/3h) 25 1/8 -- --
12:00 10.7 10.7 1.7 O 1.9 5.6 7.4 54 1012.8(0.0/3h) 20 1/8 0/6h
--
11:00 9.1 9.1 3.6 ONO 1.9 3.7 5.6 68 1013.1(0.6/3h) 20 2/8 -- --
10:00 7.5 7.5 4.1 OSO 3.7 3.7 5.6 79 1013.2(1.2/3h) 15 6/8 -- --
09:00 6.8 6.8 4.0 SO 1.9 5.6 7.4 82 1012.8(1.2/3h) 15 6/8 -- --
08:00 6.1 6.1 3.7 O 1.9 5.6 5.6 85 1012.5(1.3/3h) 15 7/8 -- --
07:00 5.7 4.7 3.7 O 5.6 5.6 7.4 87 1012.1(1.2/3h) 50 7/8 -- --
06:00 5.7 4.7 3.5 OSO 5.6 11.1 14.8 86 1011.6(1.2/3h) 50 8/8 0/12h
--
05:00 5.9 5.9 3.4 OSO 3.7 3.7 5.6 84 1011.2(1.2/3h) 35 0/8 -- --
04:00 6.2 6.2 3.5 O 3.7 5.6 7.4 83 1010.8(1.3/3h) 40 8/8 -- --
03:00 6.5 6.5 3.7 O 3.7 11.1 14.8 82 1010.3(1.6/3h) >70 8/8 -- --
02:00 6.8 5.9 3.7 ONO 5.6 9.3 13.0 81 1010(1.3/3h) >70 8/8 -- --
01:00 6.9 5.1 3.4 ONO 9.3 11.1 14.8 78 1009.5(1.5/3h) >70 8/8 -- --
00:00 6.9 5.1 3.7 ONO 9.3 13.0 16.7 80 1008.7(1.3/3h) >70 8/8 0/6h
0/24h
--

1 Coordinated Universal Time. Actuellement il est 13:00 locale et 11:00 UTC.

2 Le vent souffle depuis la direction indiquée vers la direction oposée.

3 Les rafales max. sont disponible 40 min après l'heure du relevé.

4 Pour les stations d'altitude (plus de 600m) le géopotentiel du niveau le plus proche de la pression obligatoire est indiqué.

5 Les stations disposant d'un diffuseur peuvent indiquer "trace". Cela signifie que des précipitations ont touchés le sol mais que la quantité est inférieure à 0.1 mm.

Récapitulatif de la journée
Température [°C] Vent [km/h] Ensoleillement4 [h] Precipitations totale5 [mm] Pression [Hpa]
Min1 Max.2 Moy.3 Max. Min Max.
5.7 12.0 5.4 16.7 0 h 0 min 0 1008.7 1013.2

1 Température minimale relevée entre 18:00 UTC la veille et 18:00 UTC le jour donné.

2 Température maximale relevée entre 06:00 UTC le jour donné et 06:00 UTC le lendemain.

3 Vent moyen de la journée basé sur les relevés horaires.

4 Ensoleillement en heures relevé entre 06:00 UTC la veille et 06:00 UTC le jour donné.

5 Précipitations totales tombées entre 06:00 UTC la jour donné et 06:00 UTC le lendemain.

Graphiques horaires